Time;durP1;ratioP1;P1;durP2;ratioP2;P2;SDS_P1;SDS_P2;PMS_P1;PMS_P2;Temp;Humidity;BMP_temperature;BMP_pressure;BME280_temperature;BME280_humidity;BME280_pressure;Samples;Min_cycle;Max_cycle;Signal;HPM_P1;HPM_P2
2023/07/22 00:02:06;;;;;;;5.73;4.60;;;15.80;97.70;;;15.55;71.62;100631.94;5075005;28;20280;-76
2023/07/22 00:04:38;;;;;;;5.13;4.37;;;15.80;97.40;;;15.57;71.03;100636.13;5074947;28;20277;-76
2023/07/22 00:07:10;;;;;;;6.13;4.50;;;15.80;97.60;;;15.47;71.33;100627.50;5074419;28;20675;-76
2023/07/22 00:09:42;;;;;;;7.33;4.83;;;15.80;97.50;;;15.52;70.41;100624.25;5074850;28;20189;-76
2023/07/22 00:12:15;;;;;;;5.03;4.43;;;15.80;97.40;;;15.44;71.06;100630.59;5074790;28;20243;-76
2023/07/22 00:14:47;;;;;;;4.73;4.23;;;15.70;97.60;;;15.52;70.92;100630.47;5074137;28;20217;-76
2023/07/22 00:17:19;;;;;;;6.47;5.03;;;15.70;97.40;;;15.44;71.15;100630.59;5074410;28;20268;-76
2023/07/22 00:19:51;;;;;;;5.80;5.30;;;15.60;97.80;;;15.41;71.31;100635.56;5074600;28;20198;-76
2023/07/22 00:22:26;;;;;;;6.17;5.50;;;15.60;97.70;;;15.38;70.90;100631.34;5074580;28;20228;-76
2023/07/22 00:24:59;;;;;;;7.63;5.77;;;15.60;97.60;;;15.46;71.10;100633.94;5074528;28;20217;-76
2023/07/22 00:27:33;;;;;;;7.23;5.67;;;15.70;97.50;;;15.41;71.12;100632.84;5074373;28;20221;-76
2023/07/22 00:30:05;;;;;;;7.27;5.50;;;15.60;97.60;;;15.50;71.07;100640.66;5074405;28;20276;-76
2023/07/22 00:32:38;;;;;;;8.40;5.57;;;15.80;97.40;;;15.50;70.32;100629.84;5074376;28;20285;-76
2023/07/22 00:35:11;;;;;;;9.10;5.70;;;15.80;97.30;;;15.39;71.38;100634.91;5074313;28;20190;-76
2023/07/22 00:37:43;;;;;;;7.87;5.90;;;15.60;97.70;;;15.41;70.64;100635.56;5074132;28;20268;-76
2023/07/22 00:40:16;;;;;;;6.63;5.93;;;15.60;97.60;;;15.43;70.38;100634.31;5074210;28;20239;-76
2023/07/22 00:42:50;;;;;;;7.47;5.87;;;15.70;97.60;;;15.44;71.11;100643.25;5074174;28;20300;-76
2023/07/22 00:45:22;;;;;;;7.93;6.30;;;15.70;97.40;;;15.38;70.32;100641.31;5074063;28;20240;-76
2023/07/22 00:47:54;;;;;;;7.07;5.93;;;15.60;97.40;;;15.31;70.53;100643.94;5074078;28;20213;-76
2023/07/22 00:50:27;;;;;;;8.13;5.80;;;15.60;97.70;;;15.19;71.27;100653.59;5073746;28;20650;-76
2023/07/22 00:52:59;;;;;;;8.03;6.40;;;15.40;97.80;;;15.15;71.47;100645.06;5074010;28;20190;-76
2023/07/22 00:55:33;;;;;;;7.70;5.77;;;15.40;97.90;;;15.21;71.05;100643.44;5073586;28;20689;-76
2023/07/22 00:58:06;;;;;;;7.80;6.00;;;15.50;97.50;;;15.28;71.32;100636.25;5073548;28;20216;-76
2023/07/22 01:00:38;;;;;;;7.40;6.20;;;15.50;97.60;;;15.24;70.82;100645.75;5073894;28;20217;-76
2023/07/22 01:03:10;;;;;;;7.00;6.30;;;15.50;97.60;;;15.12;71.74;100644.59;5073865;28;20193;-76
2023/07/22 01:05:43;;;;;;;8.10;7.27;;;15.40;97.60;;;15.11;72.00;100640.22;5073420;28;20611;-76
2023/07/22 01:08:15;;;;;;;6.73;6.03;;;15.30;97.80;;;15.21;70.73;100646.97;5073485;28;20646;-76
2023/07/22 01:10:48;;;;;;;8.10;6.87;;;15.50;97.60;;;15.11;70.75;100637.53;5073467;28;20276;-76
2023/07/22 01:13:21;;;;;;;10.83;6.43;;;15.40;97.60;;;15.10;71.05;100633.19;5073697;28;20225;-76
2023/07/22 01:15:53;;;;;;;6.90;6.00;;;15.40;97.70;;;15.11;70.84;100640.22;5073581;28;20308;-76
2023/07/22 01:18:25;;;;;;;7.27;6.57;;;15.30;97.80;;;15.02;71.66;100636.00;5073590;28;20217;-76
2023/07/22 01:20:57;;;;;;;8.63;6.60;;;15.30;97.80;;;14.96;71.67;100631.38;5073640;28;20232;-76
2023/07/22 01:23:31;;;;;;;9.70;6.60;;;15.10;98.20;;;15.02;71.18;100631.44;5073268;28;20197;-76
2023/07/22 01:26:04;;;;;;;9.20;6.80;;;15.30;97.80;;;15.00;71.15;100638.06;5073037;28;20568;-76
2023/07/22 01:28:39;;;;;;;9.57;7.50;;;15.30;97.70;;;14.94;71.68;100633.41;5073578;28;20251;-76
2023/07/22 01:31:12;;;;;;;8.70;6.60;;;15.20;97.90;;;14.92;71.73;100636.31;5073524;28;20243;-76
2023/07/22 01:33:44;;;;;;;10.60;6.93;;;15.20;97.90;;;14.73;71.87;100636.91;5073472;28;20189;-76
2023/07/22 01:36:17;;;;;;;8.97;6.93;;;15.00;98.20;;;14.66;72.58;100633.28;5073386;28;20265;-76
2023/07/22 01:38:50;;;;;;;9.57;6.93;;;14.90;98.70;;;14.75;72.04;100634.03;5073345;28;20253;-76
2023/07/22 01:41:23;;;;;;;8.20;6.43;;;15.00;98.40;;;14.80;71.69;100631.59;5073080;28;20236;-76
2023/07/22 01:43:54;;;;;;;8.77;7.00;;;15.10;98.10;;;14.59;73.20;100630.53;5073066;28;20237;-76
2023/07/22 01:46:26;;;;;;;8.33;6.67;;;14.90;98.60;;;14.64;72.13;100632.66;5073062;28;20816;-76
2023/07/22 01:49:00;;;;;;;10.60;7.43;;;14.90;98.50;;;14.62;72.52;100635.53;5073379;28;20537;-76
2023/07/22 01:51:32;;;;;;;7.73;6.73;;;14.90;98.50;;;14.66;71.94;100627.91;5073342;28;20544;-76
2023/07/22 01:54:05;;;;;;;8.43;7.40;;;15.00;98.10;;;14.66;71.99;100634.13;5073289;28;20296;-76
2023/07/22 01:56:37;;;;;;;9.47;6.90;;;14.90;98.40;;;14.61;72.22;100636.56;5072899;28;20646;-76
2023/07/22 01:59:10;;;;;;;8.60;6.47;;;14.90;98.50;;;14.49;72.88;100635.38;5073195;28;20213;-76
2023/07/22 02:01:42;;;;;;;9.37;6.63;;;14.70;98.70;;;14.37;73.29;100628.81;5073257;28;20339;-76
2023/07/22 02:04:14;;;;;;;9.40;6.57;;;14.60;98.90;;;14.44;72.71;100639.66;5073218;28;20194;-76
2023/07/22 02:06:47;;;;;;;9.63;6.80;;;14.70;98.80;;;14.45;72.78;100639.47;5073134;28;20229;-76
2023/07/22 02:09:20;;;;;;;8.60;6.77;;;14.70;98.80;;;14.50;72.73;100639.75;5073162;28;20232;-76
2023/07/22 02:11:53;;;;;;;8.67;6.47;;;14.80;98.80;;;14.54;71.99;100635.66;5073106;28;20281;-76
2023/07/22 02:14:25;;;;;;;8.60;6.50;;;14.90;98.30;;;14.51;72.40;100636.03;5073131;28;20281;-76
2023/07/22 02:16:57;;;;;;;7.63;6.63;;;14.80;98.60;;;14.62;71.73;100645.50;5072972;28;20232;-76
2023/07/22 02:19:28;;;;;;;9.77;7.03;;;14.90;98.70;;;14.64;71.92;100651.53;5073016;28;20573;-76
2023/07/22 02:22:01;;;;;;;8.33;6.37;;;14.90;98.40;;;14.74;71.42;100643.97;5073025;28;20216;-76
2023/07/22 02:24:34;;;;;;;8.50;6.63;;;15.10;98.10;;;14.58;71.83;100639.66;5072975;28;20277;-76
2023/07/22 02:27:05;;;;;;;11.27;6.97;;;15.00;97.90;;;14.58;71.78;100636.13;5072925;28;20320;-76
2023/07/22 02:29:37;;;;;;;11.00;6.97;;;14.90;98.00;;;14.61;72.31;100644.66;5072980;28;20293;-76
2023/07/22 02:32:11;;;;;;;9.07;6.70;;;14.90;98.40;;;14.45;72.53;100644.03;5072975;28;20221;-76
2023/07/22 02:34:43;;;;;;;11.53;7.40;;;14.80;98.50;;;14.45;72.52;100655.63;5072892;28;20190;-75
2023/07/22 02:37:14;;;;;;;9.07;7.10;;;14.70;98.60;;;14.51;72.27;100654.06;5072484;28;20752;-75
2023/07/22 02:39:48;;;;;;;8.43;6.80;;;14.80;98.50;;;14.44;72.76;100647.75;5075521;28;20247;-75
2023/07/22 02:42:21;;;;;;;9.20;7.33;;;14.80;98.60;;;14.24;73.56;100652.84;5075781;28;20221;-76
2023/07/22 02:44:55;;;;;;;9.43;7.00;;;14.60;98.80;;;14.23;73.65;100654.69;5076065;28;20280;-76
2023/07/22 02:47:28;;;;;;;8.13;6.60;;;14.50;99.40;;;14.23;73.76;100656.53;5075925;28;20225;-75
2023/07/22 02:50:00;;;;;;;8.37;6.57;;;14.60;99.10;;;14.25;73.70;100659.88;5076321;28;20536;-75
2023/07/22 02:52:32;;;;;;;9.33;6.20;;;14.50;99.30;;;14.33;73.03;100646.31;5076332;28;20284;-74
2023/07/22 02:55:16;;;;;;;9.67;6.50;;;14.70;99.00;;;14.35;72.83;100655.06;5076954;28;20293;-74
2023/07/22 02:57:49;;;;;;;8.30;6.47;;;14.70;98.70;;;14.39;72.92;100655.53;5075897;28;20200;-74
2023/07/22 03:00:24;;;;;;;8.63;6.73;;;14.70;98.80;;;14.30;73.43;100662.03;5076094;28;20217;-74
2023/07/22 03:03:00;;;;;;;11.33;6.63;;;14.70;98.90;;;14.28;73.65;100664.06;5076103;28;20277;-74
2023/07/22 03:05:34;;;;;;;9.03;7.20;;;14.50;99.40;;;14.13;74.14;100661.38;5076024;28;20185;-74
2023/07/22 03:08:07;;;;;;;9.97;7.67;;;14.40;99.60;;;14.02;75.58;100661.81;5076028;28;20280;-74
2023/07/22 03:10:40;;;;;;;11.30;7.17;;;14.30;99.90;;;13.93;76.06;100665.63;5075731;28;20221;-74
2023/07/22 03:13:11;;;;;;;11.57;7.80;;;14.20;99.90;;;13.49;77.91;100669.03;5075930;28;20263;-74
2023/07/22 03:15:44;;;;;;;12.30;7.87;;;13.90;99.90;;;13.48;77.78;100667.38;5075823;28;20308;-74
2023/07/22 03:18:16;;;;;;;12.80;8.10;;;13.80;99.90;;;13.42;78.51;100669.97;5075888;28;20218;-74
2023/07/22 03:20:48;;;;;;;11.50;8.37;;;13.80;99.90;;;13.32;79.80;100662.13;5075721;28;20210;-74
2023/07/22 03:23:20;;;;;;;10.17;8.00;;;13.70;99.90;;;13.28;79.50;100666.22;5075751;28;20240;-74
2023/07/22 03:25:54;;;;;;;15.20;8.33;;;13.60;99.90;;;13.24;80.07;100681.03;5075660;28;20308;-74
2023/07/22 03:28:26;;;;;;;12.97;8.33;;;13.60;99.90;;;13.23;79.62;100676.66;5075347;28;20638;-74
2023/07/22 03:30:58;;;;;;;12.87;9.20;;;13.60;99.90;;;13.23;79.76;100675.81;5075605;28;20280;-74
2023/07/22 03:33:30;;;;;;;11.77;9.20;;;13.60;99.90;;;13.19;80.79;100678.00;5075604;28;20190;-74
2023/07/22 03:36:02;;;;;;;11.60;9.43;;;13.60;99.90;;;13.00;81.25;100681.16;5075437;28;20308;-74
2023/07/22 03:38:34;;;;;;;13.80;9.17;;;13.50;99.90;;;13.07;81.34;100690.16;5075472;28;20276;-74
2023/07/22 03:41:07;;;;;;;13.03;9.77;;;13.50;99.90;;;12.99;80.45;100688.38;5075365;28;20213;-74
2023/07/22 03:43:39;;;;;;;12.80;9.33;;;13.50;99.90;;;12.92;81.85;100686.56;5075094;28;20213;-74
2023/07/22 03:46:11;;;;;;;11.77;9.13;;;13.40;99.90;;;12.93;81.29;100693.59;5075393;28;20260;-74
2023/07/22 03:48:43;;;;;;;14.10;9.03;;;13.40;99.90;;;12.99;80.47;100692.91;5075271;28;20236;-74
2023/07/22 03:51:15;;;;;;;15.13;9.57;;;13.40;99.90;;;13.04;81.16;100695.91;5074018;28;20273;-74
2023/07/22 03:53:52;;;;;;;12.93;8.67;;;13.50;99.90;;;13.03;80.44;100700.44;5075182;28;20185;-74
2023/07/22 03:56:25;;;;;;;12.57;8.87;;;13.50;99.90;;;13.05;80.49;100702.94;5075056;28;20312;-74
2023/07/22 03:58:58;;;;;;;13.40;8.90;;;13.50;99.90;;;13.12;80.59;100706.63;5074790;28;20588;-74
2023/07/22 04:01:30;;;;;;;14.10;9.30;;;13.50;99.90;;;13.10;80.64;100700.59;5075028;28;20281;-67
2023/07/22 04:04:02;;;;;;;16.80;9.60;;;13.60;99.90;;;13.06;80.50;100694.72;5074950;28;20251;-72
2023/07/22 04:06:34;;;;;;;13.87;9.07;;;13.50;99.90;;;13.07;80.80;100700.91;5074832;28;20231;-72
2023/07/22 04:09:05;;;;;;;14.27;9.37;;;13.50;99.90;;;13.05;80.45;100697.56;5074548;28;20650;-72
2023/07/22 04:11:39;;;;;;;14.27;9.50;;;13.50;99.90;;;13.17;80.53;100707.78;5074815;28;20287;-72
2023/07/22 04:14:12;;;;;;;13.87;8.43;;;13.60;99.90;;;13.15;80.54;100698.22;5074781;28;20272;-72
2023/07/22 04:16:44;;;;;;;14.37;9.07;;;13.60;99.90;;;13.17;80.71;100696.19;5074349;28;20243;-72
2023/07/22 04:19:16;;;;;;;14.27;9.17;;;13.60;99.90;;;13.11;80.17;100694.22;5074566;28;20295;-72
2023/07/22 04:21:48;;;;;;;14.43;8.90;;;13.50;99.90;;;13.10;80.96;100701.44;5074590;28;20193;-72
2023/07/22 04:24:20;;;;;;;13.60;8.30;;;13.50;99.90;;;13.12;80.68;100703.94;5074544;28;20280;-72
2023/07/22 04:26:53;;;;;;;14.17;8.43;;;13.60;99.90;;;13.22;79.98;100706.41;5074413;28;20229;-72
2023/07/22 04:29:25;;;;;;;12.13;8.73;;;13.60;99.90;;;13.24;79.59;100699.84;5074163;28;20182;-72
2023/07/22 04:32:00;;;;;;;10.63;8.33;;;13.70;99.90;;;13.26;80.04;100702.34;5074424;28;20198;-72
2023/07/22 04:34:35;;;;;;;10.23;8.53;;;13.70;99.90;;;13.31;79.32;100698.09;5074389;28;20220;-72
2023/07/22 04:37:09;;;;;;;12.23;8.23;;;13.80;99.90;;;13.26;79.21;100702.34;5074229;28;20315;-72
2023/07/22 04:39:41;;;;;;;11.20;8.37;;;13.80;99.90;;;13.37;79.16;100702.75;5074208;28;20217;-72
2023/07/22 04:42:14;;;;;;;16.20;8.90;;;13.80;99.90;;;13.35;nan;100699.44;5074008;28;20292;-72
2023/07/22 04:44:46;;;;;;;12.83;8.97;;;13.80;99.90;;;13.39;78.63;100702.59;5073817;28;20217;-72
2023/07/22 04:47:18;;;;;;;14.53;8.30;;;13.90;99.90;;;13.47;78.77;100705.22;5074047;28;20230;-72
2023/07/22 04:49:50;;;;;;;13.63;8.53;;;13.90;99.90;;;13.45;78.95;100704.56;5074081;28;20185;-72
2023/07/22 04:52:22;;;;;;;13.57;8.80;;;13.90;99.90;;;13.37;78.60;100710.00;5074042;28;20200;-72
2023/07/22 04:54:54;;;;;;;12.30;8.67;;;13.90;99.90;;;13.39;78.84;100714.16;5073644;28;20681;-72
2023/07/22 04:57:27;;;;;;;13.00;8.33;;;13.90;99.90;;;13.43;78.76;100712.78;5073852;28;20229;-72
2023/07/22 04:59:59;;;;;;;11.63;8.10;;;13.90;99.90;;;13.44;78.73;100713.63;5073551;28;20747;-73
2023/07/22 05:02:31;;;;;;;12.97;8.30;;;13.90;99.90;;;13.47;78.38;100722.19;5073518;28;20225;-73
2023/07/22 05:05:04;;;;;;;11.77;7.73;;;14.00;99.90;;;13.51;77.52;100722.66;5073841;28;20185;-73
2023/07/22 05:07:35;;;;;;;15.00;8.67;;;14.00;99.90;;;13.52;78.36;100717.13;5073751;28;20236;-73
2023/07/22 05:10:12;;;;;;;13.03;8.13;;;14.00;99.90;;;13.44;78.11;100727.94;5073766;28;20225;-73
2023/07/22 05:12:46;;;;;;;15.00;8.70;;;13.90;99.90;;;13.52;78.67;100722.50;5073735;28;20189;-73
2023/07/22 05:15:17;;;;;;;11.10;7.90;;;14.00;99.90;;;13.52;77.70;100716.28;5073706;28;20211;-73
2023/07/22 05:17:49;;;;;;;15.73;8.67;;;14.00;99.90;;;13.54;78.57;100725.00;5073667;28;20213;-73
2023/07/22 05:20:21;;;;;;;21.07;9.03;;;14.00;99.90;;;13.49;78.20;100725.53;5073578;28;20252;-73
2023/07/22 05:22:53;;;;;;;15.23;8.50;;;14.00;99.90;;;13.58;77.99;100727.16;5073268;28;20195;-73
2023/07/22 05:25:25;;;;;;;12.57;7.80;;;14.10;99.90;;;13.66;77.85;100723.56;5073484;28;20276;-73
2023/07/22 05:27:58;;;;;;;15.30;7.70;;;14.20;99.90;;;13.64;78.27;100730.97;5073546;28;20217;-73
2023/07/22 05:30:30;;;;;;;16.33;8.87;;;14.20;99.90;;;13.67;77.60;100731.44;5073564;28;20272;-73
2023/07/22 05:33:07;;;;;;;14.47;8.70;;;14.20;99.90;;;13.68;77.39;100738.50;5073522;28;20243;-73
2023/07/22 05:35:39;;;;;;;15.10;8.43;;;14.20;99.90;;;13.77;77.06;100730.38;5073441;28;20200;-73
2023/07/22 05:38:10;;;;;;;13.07;8.13;;;14.30;99.90;;;13.83;76.85;100726.94;5073454;28;20279;-73
2023/07/22 05:40:42;;;;;;;10.87;7.93;;;14.30;99.90;;;13.84;76.53;100726.75;5073378;28;20296;-73
2023/07/22 05:43:16;;;;;;;10.83;7.27;;;14.40;99.90;;;13.90;76.49;100731.44;5073160;28;20259;-73
2023/07/22 05:45:49;;;;;;;10.17;7.70;;;14.40;99.90;;;13.97;76.50;100728.84;5073327;28;20265;-73
2023/07/22 05:48:21;;;;;;;10.87;7.27;;;14.50;99.90;;;13.98;75.89;100741.25;5073052;28;20546;-73
2023/07/22 05:50:53;;;;;;;10.40;8.00;;;14.50;99.90;;;13.99;76.07;100740.25;5073398;28;20189;-73
2023/07/22 05:53:25;;;;;;;12.30;7.57;;;14.50;99.90;;;14.00;76.26;100740.09;5073304;28;20189;-73
2023/07/22 05:55:57;;;;;;;11.90;7.37;;;14.50;99.90;;;14.04;75.33;100746.75;5072887;28;20759;-73
2023/07/22 05:58:30;;;;;;;10.80;7.43;;;14.60;99.90;;;14.04;75.43;100743.25;5074059;28;20293;-72
2023/07/22 06:01:02;;;;;;;11.97;8.00;;;14.60;99.90;;;14.11;75.46;100754.94;5073227;28;20297;-73
2023/07/22 06:03:34;;;;;;;18.90;7.90;;;14.60;99.90;;;14.14;75.55;100747.34;5073235;28;20221;-73
2023/07/22 06:06:06;;;;;;;10.20;7.20;;;14.70;99.90;;;14.16;75.63;100752.53;5073111;28;20222;-73
2023/07/22 06:08:38;;;;;;;11.77;7.33;;;14.70;99.90;;;14.14;75.49;100759.97;5073178;28;20256;-73
2023/07/22 06:11:10;;;;;;;12.03;7.60;;;14.70;99.90;;;14.14;75.29;100750.03;5073169;28;20189;-73
2023/07/22 06:13:43;;;;;;;12.70;7.67;;;14.70;99.90;;;14.20;75.85;100753.84;5074244;28;20299;-73
2023/07/22 06:16:15;;;;;;;10.70;7.60;;;14.70;99.90;;;14.21;75.62;100755.53;5076927;28;20308;-72
2023/07/22 06:18:47;;;;;;;11.93;7.27;;;14.70;99.90;;;14.24;75.36;100755.16;5076992;28;20545;-72
2023/07/22 06:21:19;;;;;;;12.20;8.00;;;14.70;99.90;;;14.21;74.81;100759.03;5076553;28;20209;-72
2023/07/22 06:23:51;;;;;;;48.30;10.00;;;14.70;99.90;;;14.27;74.70;100762.88;5076834;28;20190;-72
2023/07/22 06:26:23;;;;;;;12.57;7.60;;;14.80;99.90;;;14.29;74.35;100755.44;5076689;28;20229;-73
2023/07/22 06:28:56;;;;;;;11.77;7.17;;;14.80;99.80;;;14.35;74.57;100756.59;5076797;28;20200;-72
2023/07/22 06:31:30;;;;;;;14.20;8.17;;;14.90;99.90;;;14.35;73.64;100762.81;5076709;28;20603;-73
2023/07/22 06:34:03;;;;;;;12.10;7.60;;;14.90;99.60;;;14.41;73.70;100761.25;5076675;28;20280;-72
2023/07/22 06:36:34;;;;;;;11.37;7.67;;;15.00;99.40;;;14.41;73.85;100756.72;5076557;28;20236;-72
2023/07/22 06:39:06;;;;;;;15.07;7.70;;;15.00;99.40;;;14.46;74.43;100759.66;5076223;28;20693;-72
2023/07/22 06:41:38;;;;;;;8.77;6.77;;;15.00;99.70;;;14.47;74.62;100766.75;5076129;28;20309;-72
2023/07/22 06:44:11;;;;;;;11.60;8.37;;;15.00;99.80;;;14.43;74.70;100762.72;5076101;28;20662;-72
2023/07/22 06:46:44;;;;;;;12.40;8.10;;;15.00;99.80;;;14.53;75.11;100768.69;5076357;28;20253;-72
2023/07/22 06:49:16;;;;;;;13.87;7.80;;;15.10;99.90;;;14.59;74.71;100767.94;5076088;28;20205;-72
2023/07/22 06:51:48;;;;;;;12.70;8.23;;;15.10;99.80;;;14.63;74.25;100771.09;5076081;28;20617;-72
2023/07/22 06:54:20;;;;;;;13.67;8.10;;;15.10;99.60;;;14.59;73.86;100770.63;5076306;28;20193;-72
2023/07/22 06:56:51;;;;;;;13.13;8.20;;;15.10;99.30;;;14.62;73.78;100764.06;5076202;28;20286;-72
2023/07/22 06:59:26;;;;;;;13.00;8.13;;;15.20;99.40;;;14.63;73.46;100773.78;5076256;28;20218;-72
2023/07/22 07:01:57;;;;;;;10.27;8.57;;;15.20;99.30;;;14.68;73.68;100774.09;5076103;28;20295;-72
2023/07/22 07:04:29;;;;;;;43.40;9.70;;;15.20;99.30;;;14.73;73.64;100777.88;5075787;28;20286;-72
2023/07/22 07:07:02;;;;;;;11.77;7.77;;;15.20;99.20;;;14.80;73.51;100775.28;5076037;28;20225;-72
2023/07/22 07:09:35;;;;;;;14.43;7.63;;;15.30;99.30;;;14.88;74.24;100774.34;5076052;28;20208;-73
2023/07/22 07:12:08;;;;;;;11.40;8.33;;;15.40;99.40;;;14.95;73.34;100769.88;5075649;28;20601;-72
2023/07/22 07:14:42;;;;;;;13.00;7.80;;;15.50;99.10;;;15.03;72.96;100759.00;5075650;28;20700;-72
2023/07/22 07:17:14;;;;;;;13.30;8.80;;;15.60;98.90;;;15.05;72.84;100765.03;5075498;28;20226;-72
2023/07/22 07:19:46;;;;;;;11.97;8.70;;;15.60;98.80;;;15.13;72.20;100767.63;5075851;28;20259;-72
2023/07/22 07:22:18;;;;;;;12.83;7.77;;;15.70;98.70;;;15.18;72.53;100771.41;5075728;28;20317;-72
2023/07/22 07:24:50;;;;;;;12.27;8.33;;;15.80;98.60;;;15.23;72.62;100768.16;5075520;28;20289;-72
2023/07/22 07:27:22;;;;;;;12.63;8.07;;;15.80;98.60;;;15.28;72.20;100771.09;5075708;28;20316;-72
2023/07/22 07:29:55;;;;;;;12.50;7.97;;;15.80;98.50;;;15.38;71.91;100776.19;5075758;28;20200;-72
2023/07/22 07:32:27;;;;;;;11.80;8.07;;;16.00;98.30;;;15.45;71.44;100769.84;5075602;28;20213;-72
2023/07/22 07:34:59;;;;;;;11.60;7.87;;;16.00;98.10;;;15.52;69.37;100775.34;5075327;28;20638;-73
2023/07/22 07:37:32;;;;;;;13.27;7.83;;;16.10;97.00;;;15.54;69.28;100776.84;5075181;28;20662;-73
2023/07/22 07:40:04;;;;;;;16.17;8.07;;;16.10;96.80;;;15.61;69.43;100776.91;5075558;28;20217;-73
2023/07/22 07:42:36;;;;;;;13.97;7.90;;;16.20;96.90;;;15.65;69.28;100779.03;5075179;28;20312;-72
2023/07/22 07:45:13;;;;;;;11.23;7.33;;;16.20;96.90;;;15.67;70.28;100776.13;5075404;28;20247;-72
2023/07/22 07:47:45;;;;;;;12.63;7.97;;;16.20;97.10;;;15.65;69.21;100781.72;5075141;28;20320;-73
2023/07/22 07:50:17;;;;;;;19.50;7.83;;;16.20;96.70;;;15.70;70.16;100787.38;5075146;28;20194;-73
2023/07/22 07:52:49;;;;;;;10.53;7.20;;;16.20;97.00;;;15.70;70.86;100787.38;5075166;28;20265;-73
2023/07/22 07:55:21;;;;;;;20.53;7.90;;;16.20;97.60;;;15.71;69.98;100788.22;5075130;28;20280;-73
2023/07/22 07:57:52;;;;;;;11.83;7.80;;;16.30;97.20;;;15.76;69.74;100779.53;5074736;28;20228;-72
2023/07/22 08:00:26;;;;;;;11.53;7.80;;;16.30;97.20;;;15.80;70.72;100791.63;5075649;28;20284;-72
2023/07/22 08:02:58;;;;;;;13.57;8.57;;;16.30;97.40;;;15.86;69.37;100790.84;5074935;28;20300;-72
2023/07/22 08:05:30;;;;;;;14.30;8.87;;;16.40;96.80;;;15.89;67.86;100791.28;5074873;28;20197;-72
2023/07/22 08:08:02;;;;;;;15.17;8.73;;;16.40;96.10;;;15.92;68.13;100792.78;5074932;28;20193;-73
2023/07/22 08:10:34;;;;;;;12.97;8.67;;;16.40;95.90;;;15.92;68.12;100795.50;5074872;28;20289;-73
2023/07/22 08:13:06;;;;;;;10.30;7.93;;;16.50;96.00;;;15.98;66.71;100790.16;5074806;28;20280;-73
2023/07/22 08:15:39;;;;;;;15.00;8.13;;;16.50;95.40;;;16.05;66.32;100784.81;5074763;28;20219;-73
2023/07/22 08:18:11;;;;;;;15.43;8.63;;;16.60;95.40;;;16.15;67.48;100788.00;5074769;28;20202;-73
2023/07/22 08:20:42;;;;;;;10.47;8.03;;;16.70;95.70;;;16.22;65.11;100791.59;5074365;28;20212;-73
2023/07/22 08:23:14;;;;;;;59.63;10.53;;;16.70;94.70;;;16.23;65.46;100793.28;5074596;28;20245;-73
2023/07/22 08:25:46;;;;;;;12.30;7.57;;;16.70;94.60;;;16.25;67.00;100783.09;5074509;28;20229;-73
2023/07/22 08:28:18;;;;;;;11.47;8.33;;;16.80;95.20;;;16.26;66.66;100797.44;5074618;28;20198;-73
2023/07/22 08:30:55;;;;;;;12.20;8.33;;;16.80;94.80;;;16.25;66.40;100796.59;5074538;28;20590;-73
2023/07/22 08:33:27;;;;;;;12.13;8.03;;;16.70;94.70;;;16.24;66.51;100792.22;5074663;28;20277;-73
2023/07/22 08:36:12;;;;;;;11.63;7.77;;;16.70;94.90;;;16.27;67.05;100789.13;5073663;28;20225;-73
2023/07/22 08:38:44;;;;;;;12.07;8.13;;;16.80;95.40;;;16.28;66.82;100800.78;5074013;28;20612;-73
2023/07/22 08:41:19;;;;;;;9.57;8.30;;;16.80;95.40;;;16.23;66.62;100793.28;5074259;28;20198;-73
2023/07/22 08:43:55;;;;;;;11.07;8.17;;;16.70;94.90;;;16.21;66.19;100792.63;5073887;28;20209;-73
2023/07/22 08:46:33;;;;;;;15.97;8.50;;;16.70;95.00;;;16.19;66.13;100803.63;5074070;28;20232;-73
2023/07/22 08:49:08;;;;;;;12.40;7.90;;;16.60;95.00;;;16.20;65.88;100799.03;5074113;28;20272;-73
2023/07/22 08:51:40;;;;;;;10.50;8.17;;;16.70;95.00;;;16.20;66.36;100796.34;5074064;28;20272;-73
2023/07/22 08:54:14;;;;;;;13.40;8.57;;;16.70;95.10;;;16.24;66.13;100797.63;5074075;28;20276;-73
2023/07/22 08:56:47;;;;;;;11.90;8.60;;;16.70;95.20;;;16.25;66.76;100802.00;5073939;28;20256;-73
2023/07/22 08:59:20;;;;;;;11.60;8.03;;;16.70;95.00;;;16.34;66.15;100791.88;5073958;28;20200;-73
2023/07/22 09:01:54;;;;;;;9.97;8.10;;;16.80;95.20;;;16.53;66.98;100796.63;5073555;28;20536;-73
2023/07/22 09:04:27;;;;;;;56.47;10.97;;;17.00;95.70;;;16.70;66.32;100796.13;5073903;28;20620;-73
2023/07/22 09:07:00;;;;;;;10.23;8.30;;;17.20;94.90;;;16.81;65.30;100791.22;5073788;28;20323;-73
2023/07/22 09:09:32;;;;;;;10.53;8.47;;;17.30;94.40;;;16.88;63.40;100797.50;5073764;28;20199;-73
2023/07/22 09:12:05;;;;;;;8.70;7.20;;;17.40;93.70;;;16.90;63.71;100781.88;5073460;28;20192;-73
2023/07/22 09:14:39;;;;;;;11.40;8.23;;;17.40;93.60;;;16.98;62.94;100782.56;5073769;28;20247;-73
2023/07/22 09:17:13;;;;;;;10.60;8.17;;;17.50;93.30;;;17.00;63.95;100774.25;5073297;28;20265;-73
2023/07/22 09:19:44;;;;;;;10.47;8.13;;;17.50;93.60;;;17.10;63.63;100780.09;5073738;28;20276;-73
2023/07/22 09:22:19;;;;;;;13.33;9.27;;;17.50;93.50;;;17.20;63.53;100769.75;5073732;28;20213;-73
2023/07/22 09:24:52;;;;;;;13.23;9.07;;;17.70;93.00;;;17.38;62.95;100780.84;5074586;28;20228;-72
2023/07/22 09:27:37;;;;;;;15.50;9.00;;;17.80;92.80;;;17.33;61.83;100783.31;5073735;28;20225;-72
2023/07/22 09:30:29;;;;;;;16.20;9.80;;;17.80;92.00;;;17.34;61.45;100785.00;5073551;28;20189;-72
2023/07/22 09:33:04;;;;;;;10.90;8.90;;;17.80;92.30;;;17.20;61.88;100785.97;5073554;28;20225;-72
2023/07/22 09:35:48;;;;;;;10.53;9.13;;;17.70;92.10;;;17.20;62.31;100780.56;5073408;28;20224;-72
2023/07/22 09:38:25;;;;;;;11.10;9.30;;;17.70;92.70;;;17.17;62.53;100780.97;5073977;28;20229;-72
2023/07/22 09:40:57;;;;;;;12.23;9.03;;;17.60;92.60;;;17.17;62.66;100775.56;5073450;28;20189;-72
2023/07/22 09:43:30;;;;;;;11.90;10.17;;;17.60;92.60;;;17.27;63.40;100776.00;5072934;28;20257;-72
2023/07/22 09:46:11;;;;;;;11.60;9.77;;;17.70;93.00;;;17.38;62.29;100780.84;5073321;28;20316;-72
2023/07/22 09:48:48;;;;;;;12.27;9.87;;;17.90;92.50;;;17.61;61.98;100777.81;5076479;28;20285;-72
2023/07/22 09:51:21;;;;;;;14.60;10.17;;;18.00;92.30;;;17.69;61.33;100767.63;5077217;28;20192;-72
2023/07/22 09:54:04;;;;;;;14.07;11.00;;;18.20;92.00;;;17.82;60.82;100776.78;5077518;28;20189;-72
2023/07/22 09:56:47;;;;;;;13.53;11.17;;;18.30;91.80;;;17.84;61.20;100766.59;5077095;28;20600;-72
2023/07/22 09:59:22;;;;;;;14.37;11.00;;;18.30;91.70;;;17.98;60.26;100762.88;5077423;28;20281;-72
2023/07/22 10:01:58;;;;;;;12.50;10.30;;;18.50;92.00;;;18.05;62.38;100756.38;5077361;28;20219;-72
2023/07/22 10:04:37;;;;;;;14.43;11.37;;;18.60;92.50;;;18.05;59.31;100759.09;5077243;28;20213;-72
2023/07/22 10:07:14;;;;;;;16.93;10.23;;;18.50;90.70;;;18.07;59.80;100756.19;5077126;28;20256;-72
2023/07/22 10:09:50;;;;;;;13.87;9.03;;;18.50;90.90;;;18.28;59.95;100758.69;5077124;28;20280;-72
2023/07/22 10:12:22;;;;;;;10.93;9.00;;;18.70;90.90;;;18.41;57.29;100761.38;5077136;28;20674;-72
2023/07/22 10:14:56;;;;;;;11.37;8.63;;;18.90;89.60;;;18.52;56.65;100749.94;5077113;28;20252;-72
2023/07/22 10:17:30;;;;;;;12.83;9.40;;;19.10;88.30;;;18.52;58.58;100754.53;5076658;28;20244;-71
2023/07/22 10:20:07;;;;;;;9.40;8.50;;;19.00;90.00;;;18.67;56.16;100749.66;5076947;28;20633;-71
2023/07/22 10:22:41;;;;;;;8.20;7.33;;;19.10;87.70;;;18.68;55.95;100754.91;5076538;28;20554;-72
2023/07/22 10:25:15;;;;;;;7.83;7.03;;;19.20;86.60;;;18.76;54.23;100753.00;5076914;28;20194;-72
2023/07/22 10:27:48;;;;;;;7.93;7.03;;;19.20;84.70;;;18.70;54.91;100758.22;5076390;28;20772;-72
2023/07/22 10:30:21;;;;;;;8.37;6.83;;;19.20;85.30;;;18.62;55.21;100758.47;5076777;28;20221;-72
2023/07/22 10:32:56;;;;;;;7.63;6.37;;;19.10;85.50;;;18.55;54.28;100754.09;5076741;28;20213;-72